Time;durP1;ratioP1;P1;durP2;ratioP2;P2;SDS_P1;SDS_P2;PMS_P1;PMS_P2;Temp;Humidity;BMP_temperature;BMP_pressure;BME280_temperature;BME280_humidity;BME280_pressure;Samples;Min_cycle;Max_cycle;Signal;HPM_P1;HPM_P2
2022/11/14 06:59:54;;;;;;;12.50;7.97;;;;;;;3.55;100.00;101300.68;1670304;83;21389;-45
2022/11/14 07:02:45;;;;;;;15.50;8.90;;;;;;;3.69;100.00;101295.69;1625683;84;21536;-46
2022/11/14 07:05:33;;;;;;;15.28;10.03;;;;;;;3.80;100.00;101303.92;1662486;84;21641;-44
2022/11/14 07:08:18;;;;;;;11.57;8.80;;;;;;;3.87;100.00;101308.13;1658387;83;21197;-45
2022/11/14 07:11:21;;;;;;;12.37;9.53;;;;;;;3.99;100.00;101307.77;1661935;83;21020;-37
2022/11/14 07:14:00;;;;;;;16.90;9.60;;;;;;;4.13;100.00;101308.36;1671054;83;21070;-45
2022/11/14 07:16:50;;;;;;;15.68;9.65;;;;;;;4.30;100.00;101303.48;1662281;83;21491;-37
2022/11/14 07:19:36;;;;;;;15.13;9.73;;;;;;;4.41;100.00;101298.73;1629108;83;21259;-45
2022/11/14 07:22:20;;;;;;;15.38;11.03;;;;;;;4.51;100.00;101292.66;1661598;83;22237;-38
2022/11/14 07:25:07;;;;;;;14.95;9.95;;;;;;;4.62;100.00;101289.21;1658065;83;21084;-46
2022/11/14 07:27:52;;;;;;;17.50;10.50;;;;;;;4.72;100.00;101289.17;1657418;84;21957;-37
2022/11/14 07:30:47;;;;;;;17.32;10.35;;;;;;;4.76;100.00;101291.08;1654908;84;21374;-45
2022/11/14 07:33:32;;;;;;;14.80;10.55;;;;;;;4.80;100.00;101296.41;1665866;83;21514;-37
2022/11/14 07:36:17;;;;;;;17.95;9.55;;;;;;;4.91;100.00;101293.36;1663801;83;21936;-46
2022/11/14 07:39:12;;;;;;;15.95;10.08;;;;;;;5.02;100.00;101286.88;1647748;84;21144;-46
2022/11/14 07:41:57;;;;;;;17.35;10.20;;;;;;;5.08;100.00;101283.22;1626622;85;21697;-37
2022/11/14 07:44:43;;;;;;;15.95;8.50;;;;;;;5.15;100.00;101284.33;1654170;84;21521;-37
2022/11/14 07:47:43;;;;;;;14.30;8.90;;;;;;;5.21;100.00;101285.84;1662926;84;21462;-45
2022/11/14 07:50:30;;;;;;;;;;;;;;;5.25;100.00;101283.44;1662770;84;21447;-47
2022/11/14 07:53:27;;;;;;;14.18;8.68;;;;;;;5.31;100.00;101287.55;1665072;84;20109;-38
2022/11/14 07:56:13;;;;;;;15.48;8.58;;;;;;;5.40;100.00;101291.33;1665983;84;21057;-46
2022/11/14 07:59:03;;;;;;;14.40;8.58;;;;;;;5.45;100.00;101287.16;1666210;84;21143;-47
2022/11/14 08:01:50;;;;;;;14.10;8.98;;;;;;;5.55;100.00;101284.08;1606796;84;21057;-46
2022/11/14 08:04:35;;;;;;;13.15;8.28;;;;;;;5.65;100.00;101287.48;1656543;83;21565;-46
2022/11/14 08:07:19;;;;;;;14.58;7.37;;;;;;;5.75;100.00;101293.48;1655273;84;21432;-46
2022/11/14 08:10:08;;;;;;;14.60;8.15;;;;;;;5.85;100.00;101295.54;1667668;84;21113;-46
2022/11/14 08:13:01;;;;;;;11.68;7.40;;;;;;;5.90;100.00;101298.72;1658465;84;21490;-46
2022/11/14 08:15:54;;;;;;;17.52;10.65;;;;;;;5.92;100.00;101293.22;1664798;84;21068;-46
2022/11/14 08:18:45;;;;;;;12.85;8.13;;;;;;;6.02;100.00;101300.05;1662281;83;21093;-45
2022/11/14 08:22:14;;;;;;;14.85;8.93;;;;;;;6.13;100.00;101300.42;1659769;84;21415;-37
2022/11/14 08:25:43;;;;;;;12.98;7.95;;;;;;;6.28;100.00;101301.37;1658564;84;21072;-47
2022/11/14 08:28:46;;;;;;;11.70;6.72;;;;;;;6.42;100.00;101296.62;1653781;84;21818;-38
2022/11/14 08:32:00;;;;;;;13.45;8.53;;;;;;;6.54;100.00;101301.79;1658623;83;21459;-46
2022/11/14 08:34:45;;;;;;;15.43;8.23;;;;;;;6.63;100.00;101296.90;1658179;84;21078;-38
2022/11/14 08:37:31;;;;;;;10.98;7.70;;;;;;;6.65;100.00;101296.94;1654472;84;21080;-38
2022/11/14 08:40:17;;;;;;;11.10;8.00;;;;;;;6.68;100.00;101303.55;1663158;84;21132;-38
2022/11/14 08:43:02;;;;;;;10.80;7.28;;;;;;;6.67;100.00;101299.19;1608920;86;21089;-39
2022/11/14 08:45:48;;;;;;;13.43;8.30;;;;;;;6.68;100.00;101290.97;1638066;84;22332;-38
2022/11/14 08:48:33;;;;;;;10.58;7.55;;;;;;;6.76;100.00;101289.48;1645214;85;21424;-46
2022/11/14 08:51:19;;;;;;;17.35;7.90;;;;;;;6.85;100.00;101280.25;1646966;84;21690;-47
2022/11/14 08:54:08;;;;;;;17.73;7.85;;;;;;;6.94;100.00;101270.10;1658218;84;21360;-46
2022/11/14 08:56:53;;;;;;;11.65;7.42;;;;;;;7.01;100.00;101271.59;1666991;84;21088;-46
2022/11/14 08:59:38;;;;;;;12.53;7.35;;;;;;;7.06;100.00;101269.59;1662376;84;21711;-38
2022/11/14 09:02:23;;;;;;;12.03;6.90;;;;;;;7.06;100.00;101270.89;1655497;84;21017;-47
2022/11/14 09:05:08;;;;;;;17.07;6.50;;;;;;;7.09;100.00;101268.39;1662116;84;21058;-47
2022/11/14 09:07:55;;;;;;;8.50;6.15;;;;;;;7.20;100.00;101271.31;1668199;84;21052;-37
2022/11/14 09:11:05;;;;;;;8.58;6.12;;;;;;;7.29;100.00;101263.75;1658736;84;21518;-36
2022/11/14 09:13:51;;;;;;;8.70;5.62;;;;;;;7.35;100.00;101260.02;1656654;84;22017;-48
2022/11/14 09:16:37;;;;;;;8.80;6.05;;;;;;;7.44;100.00;101260.29;1650704;85;21113;-38
2022/11/14 09:19:22;;;;;;;7.87;5.55;;;;;;;7.53;100.00;101254.86;1641659;84;21175;-47
2022/11/14 09:22:06;;;;;;;7.70;5.35;;;;;;;7.63;100.00;101259.48;1644615;84;21065;-39
2022/11/14 09:25:17;;;;;;;8.35;5.47;;;;;;;7.73;100.00;101256.30;1625370;85;22224;-49
2022/11/14 09:28:23;;;;;;;8.08;4.65;;;;;;;7.81;100.00;101253.47;1617577;85;21711;-39
2022/11/14 09:31:11;;;;;;;11.68;4.80;;;;;;;7.91;100.00;101253.30;1623216;85;21054;-48
2022/11/14 09:33:55;;;;;;;7.03;4.70;;;;;;;8.03;98.86;101252.30;1610559;86;21038;-38
2022/11/14 09:36:42;;;;;;;6.97;4.87;;;;;;;8.08;98.92;101248.09;1601814;87;21138;-47
2022/11/14 09:39:27;;;;;;;5.55;4.65;;;;;;;8.20;97.64;101243.60;1668644;83;21096;-37
2022/11/14 09:43:02;;;;;;;9.35;4.00;;;;;;;8.31;96.86;101243.87;1658642;84;21496;-47
2022/11/14 09:46:32;;;;;;;7.90;4.03;;;;;;;8.39;93.99;101241.92;1680105;83;21383;-50
2022/11/14 09:50:13;;;;;;;6.05;3.65;;;;;;;8.55;90.79;101240.56;1696409;81;21064;-46
2022/11/14 09:54:00;;;;;;;4.70;3.10;;;;;;;8.76;89.16;101233.66;1680053;81;22004;-38
2022/11/14 09:56:48;;;;;;;5.95;3.40;;;;;;;9.20;87.75;101228.05;1673561;83;20992;-46
2022/11/14 10:00:34;;;;;;;5.83;3.37;;;;;;;9.93;84.84;101232.92;1660022;83;21120;-47
2022/11/14 10:04:12;;;;;;;4.83;3.65;;;;;;;10.45;80.99;101224.23;1676490;83;21092;-47
2022/11/14 10:07:31;;;;;;;8.80;3.33;;;;;;;11.11;78.85;101213.34;1669368;83;21034;-46
2022/11/14 10:11:23;;;;;;;10.25;3.35;;;;;;;11.72;76.53;101216.66;1669354;82;21855;-48
2022/11/14 10:14:55;;;;;;;5.22;3.20;;;;;;;12.25;74.07;101208.41;1663928;83;22000;-48
2022/11/14 10:18:13;;;;;;;7.03;3.65;;;;;;;12.37;69.54;101203.69;1670541;83;21152;-47
2022/11/14 10:21:30;;;;;;;8.38;3.37;;;;;;;12.38;68.84;101208.06;1673768;82;21455;-50
2022/11/14 10:24:41;;;;;;;6.25;3.05;;;;;;;12.71;67.68;101203.03;1670486;83;21079;-48
2022/11/14 10:27:34;;;;;;;5.25;3.00;;;;;;;13.31;67.50;101197.62;1677095;83;21019;-48
2022/11/14 10:30:19;;;;;;;4.15;2.70;;;;;;;13.97;65.39;101191.14;1671795;83;21085;-47
2022/11/14 10:33:21;;;;;;;4.92;2.85;;;;;;;14.39;62.03;101186.76;1691246;81;22341;-45
2022/11/14 10:36:27;;;;;;;4.30;2.85;;;;;;;14.58;59.88;101180.59;1697590;81;21541;-48
2022/11/14 10:39:23;;;;;;;5.35;2.70;;;;;;;14.70;58.39;101181.45;1603963;87;21102;-40
2022/11/14 10:42:15;;;;;;;4.12;2.37;;;;;;;14.42;58.53;101177.96;1603716;87;21057;-38
2022/11/14 10:45:13;;;;;;;;;;;;;;;14.42;58.70;101183.23;1606060;87;21546;-38
2022/11/14 10:48:09;;;;;;;4.83;2.50;;;;;;;14.51;57.57;101178.86;1605845;87;20197;-39
2022/11/14 10:51:30;;;;;;;6.22;2.50;;;;;;;14.60;57.84;101168.73;1608492;87;21442;-52
2022/11/14 10:54:45;;;;;;;6.15;3.00;;;;;;;14.84;57.05;101173.95;1607105;87;21116;-39
2022/11/14 10:57:30;;;;;;;6.47;3.00;;;;;;;15.08;56.21;101165.51;1583641;87;21455;-38
2022/11/14 11:00:18;;;;;;;4.00;2.67;;;;;;;15.37;54.62;101164.91;1590495;87;20991;-39
2022/11/14 11:03:03;;;;;;;3.90;2.75;;;;;;;15.48;53.80;101160.89;1583002;88;21163;-39
2022/11/14 11:05:53;;;;;;;8.88;2.92;;;;;;;15.49;53.28;101153.41;1579481;88;21147;-39
2022/11/14 11:11:57;;;;;;;4.45;2.75;;;;;;;15.63;53.18;101156.84;1582230;87;21086;-40
2022/11/14 11:14:44;;;;;;;5.70;2.65;;;;;;;15.97;53.50;101147.34;1585203;88;21568;-38
2022/11/14 11:17:32;;;;;;;11.08;3.02;;;;;;;16.22;52.32;101149.30;1641295;84;21085;-39
2022/11/14 11:20:36;;;;;;;6.03;2.52;;;;;;;16.30;51.98;101146.16;1643574;84;21734;-50
2022/11/14 11:23:25;;;;;;;5.03;2.58;;;;;;;16.58;51.71;101151.13;1646014;83;21100;-50
2022/11/14 11:26:27;;;;;;;7.03;2.80;;;;;;;16.94;51.06;101148.11;1649414;84;20985;-38
2022/11/14 11:29:21;;;;;;;6.60;3.08;;;;;;;17.06;47.89;101143.55;1652103;84;21462;-46
2022/11/14 11:32:08;;;;;;;6.03;2.52;;;;;;;16.64;48.30;101144.45;1639826;83;21326;-48
2022/11/14 11:34:54;;;;;;;4.78;2.87;;;;;;;16.40;49.21;101137.68;1660126;82;21663;-48
2022/11/14 11:37:47;;;;;;;4.35;2.30;;;;;;;16.27;49.66;101146.63;1695692;81;21005;-49
2022/11/14 11:40:32;;;;;;;4.33;2.70;;;;;;;16.05;49.46;101138.03;1697842;81;21044;-39
2022/11/14 11:43:52;;;;;;;7.20;2.83;;;;;;;15.73;50.16;101144.92;1695019;81;21635;-49
2022/11/14 11:46:54;;;;;;;4.90;2.37;;;;;;;15.63;51.21;101127.83;1701681;80;21009;-48
2022/11/14 11:49:50;;;;;;;4.35;2.55;;;;;;;16.08;50.60;101127.46;1694368;81;21618;-49
2022/11/14 11:52:54;;;;;;;3.85;2.55;;;;;;;16.13;50.04;101126.97;1670378;83;21564;-47
2022/11/14 11:55:59;;;;;;;4.20;2.67;;;;;;;15.88;49.81;101123.22;1696462;81;21024;-37
2022/11/14 11:58:54;;;;;;;3.33;2.33;;;;;;;15.64;49.35;101132.21;1703548;81;21135;-38
2022/11/14 12:01:43;;;;;;;4.33;2.50;;;;;;;15.42;49.96;101131.89;1687061;81;21031;-46
2022/11/14 12:04:29;;;;;;;7.80;2.58;;;;;;;15.52;50.47;101132.72;1712897;81;21222;-37
2022/11/14 12:07:21;;;;;;;5.28;2.47;;;;;;;15.89;50.19;101129.40;1717858;81;21053;-46
2022/11/14 12:10:24;;;;;;;5.17;2.58;;;;;;;16.37;49.64;101124.08;1716465;81;21655;-38
2022/11/14 12:13:29;;;;;;;5.22;2.22;;;;;;;16.87;47.93;101126.62;1709945;81;21453;-39
2022/11/14 12:17:07;;;;;;;5.12;2.70;;;;;;;16.88;47.23;101127.49;1671982;83;21467;-39
2022/11/14 12:20:48;;;;;;;4.35;2.58;;;;;;;16.42;47.79;101128.87;1686474;83;21034;-39
2022/11/14 12:24:09;;;;;;;6.87;3.00;;;;;;;15.68;49.22;101119.89;1694810;83;21556;-38
2022/11/14 12:27:20;;;;;;;5.75;3.08;;;;;;;15.03;50.88;101125.13;1693317;83;20994;-39
2022/11/14 12:30:20;;;;;;;6.70;3.47;;;;;;;14.80;51.35;101124.78;1638596;86;21206;-48
2022/11/14 12:33:14;;;;;;;5.97;3.05;;;;;;;14.50;51.78;101125.77;1650064;85;21148;-48
2022/11/14 12:36:01;;;;;;;5.15;3.42;;;;;;;13.99;52.91;101127.59;1650482;85;21447;-38
2022/11/14 12:38:51;;;;;;;5.92;3.92;;;;;;;13.61;54.23;101136.78;1656136;86;21088;-38
2022/11/14 12:41:37;;;;;;;10.15;4.45;;;;;;;13.21;55.26;101139.77;1651657;85;21560;-38
2022/11/14 12:44:32;;;;;;;5.70;3.65;;;;;;;12.66;56.42;101130.36;1635304;86;21081;-38
2022/11/14 12:47:20;;;;;;;6.80;3.67;;;;;;;12.25;57.68;101132.33;1644378;82;21078;-47
2022/11/14 12:50:27;;;;;;;8.28;3.70;;;;;;;12.06;58.89;101131.33;1653895;86;21366;-48
